createdAt,value
2024-01-19T00:00:36.850Z,-18396.97
2024-01-19T00:03:40.109Z,-18395.06
2024-01-19T00:06:42.732Z,-18395.59
2024-01-19T00:09:45.834Z,-18392.59
2024-01-19T00:12:48.677Z,-18390.38
2024-01-19T00:15:53.486Z,-18391.06
2024-01-19T00:18:56.063Z,-18388.44
2024-01-19T00:21:59.053Z,-18388.44
2024-01-19T00:25:01.638Z,-18389.00
2024-01-19T00:28:04.794Z,-18388.59
2024-01-19T00:31:07.852Z,-18386.81
2024-01-19T00:34:10.769Z,-18383.38
2024-01-19T00:37:13.411Z,-18380.75
2024-01-19T00:40:16.856Z,-18378.28
2024-01-19T00:43:19.518Z,-18371.41
2024-01-19T00:46:23.088Z,-18369.63
2024-01-19T00:49:25.991Z,-18365.38
2024-01-19T00:52:28.868Z,-18360.69
2024-01-19T00:55:31.569Z,-18357.25
2024-01-19T00:58:34.454Z,-18354.91
2024-01-19T01:01:37.122Z,-18351.19
2024-01-19T01:04:40.199Z,-18349.41
2024-01-19T01:07:42.822Z,-18345.69
2024-01-19T01:10:46.557Z,-18342.81
2024-01-19T01:13:49.250Z,-18335.66
2024-01-19T01:16:52.080Z,-18327.94
2024-01-19T01:19:54.721Z,-18319.97
2024-01-19T01:22:57.647Z,-18313.34
2024-01-19T01:26:00.286Z,-18311.97
2024-01-19T01:29:03.153Z,-18308.81
2024-01-19T01:32:05.874Z,-18305.50
2024-01-19T01:35:09.123Z,-18304.25
2024-01-19T01:38:11.814Z,-18304.13
2024-01-19T01:41:14.805Z,-18301.91
2024-01-19T01:44:17.540Z,-18300.13
2024-01-19T01:47:20.531Z,-18296.41
2024-01-19T01:50:24.416Z,-18293.25
2024-01-19T01:53:27.620Z,-18291.03
2024-01-19T01:56:30.759Z,-18290.75
2024-01-19T01:59:34.422Z,-18287.47
2024-01-19T02:02:38.314Z,-18287.03
2024-01-19T02:05:41.517Z,-18284.97
2024-01-19T02:08:44.683Z,-18285.37
2024-01-19T02:11:47.349Z,-18284.16
2024-01-19T02:14:50.422Z,-18284.16
2024-01-19T02:17:54.271Z,-18279.47
2024-01-19T02:20:57.505Z,-18280.97
2024-01-19T02:24:04.856Z,-18281.53
2024-01-19T02:27:10.177Z,-18279.19
2024-01-19T02:30:13.350Z,-18278.91
2024-01-19T02:33:16.448Z,-18279.31
2024-01-19T02:36:19.265Z,-18280.44
2024-01-19T02:39:22.230Z,-18275.59
2024-01-19T02:42:24.927Z,-18278.38
2024-01-19T02:45:27.785Z,-18278.38
2024-01-19T02:48:30.754Z,-18276.03
2024-01-19T02:51:33.884Z,-18276.97
2024-01-19T02:54:36.498Z,-18273.13
2024-01-19T02:57:39.515Z,-18274.91
2024-01-19T03:00:42.177Z,-18275.88
2024-01-19T03:03:45.038Z,-18274.50
2024-01-19T03:06:47.709Z,-18275.06
2024-01-19T03:09:50.765Z,-18274.38
2024-01-19T03:12:53.362Z,-18275.59
2024-01-19T03:15:59.890Z,-18275.34
2024-01-19T03:19:06.364Z,-18273.94
2024-01-19T03:22:09.423Z,-18274.66
2024-01-19T03:25:12.138Z,-18275.59
2024-01-19T03:28:15.153Z,-18275.88
2024-01-19T03:31:17.809Z,-18275.88
2024-01-19T03:34:20.879Z,-18274.09
2024-01-19T03:37:23.521Z,-18274.22
2024-01-19T03:40:26.521Z,-18273.13
2024-01-19T03:43:29.079Z,-18273.13
2024-01-19T03:46:31.949Z,-18271.34
2024-01-19T03:49:34.584Z,-18273.41
2024-01-19T03:52:38.799Z,-18274.78
2024-01-19T03:55:41.472Z,-18272.84
2024-01-19T03:58:44.381Z,-18271.19
2024-01-19T04:01:47.062Z,-18270.38
2024-01-19T04:04:50.025Z,-18271.19
2024-01-19T04:07:52.700Z,-18270.09
2024-01-19T04:10:55.763Z,-18269.41
2024-01-19T04:13:58.430Z,-18271.47
2024-01-19T04:17:01.314Z,-18270.91
2024-01-19T04:20:06.074Z,-18270.38
2024-01-19T04:23:09.093Z,-18268.31
2024-01-19T04:26:12.214Z,-18269.00
2024-01-19T04:29:16.255Z,-18268.72
2024-01-19T04:32:18.942Z,-18268.84
2024-01-19T04:35:21.871Z,-18269.41
2024-01-19T04:38:24.488Z,-18268.44
2024-01-19T04:41:27.467Z,-18272.03
2024-01-19T04:44:30.137Z,-18269.69
2024-01-19T04:47:33.084Z,-18268.03
2024-01-19T04:50:35.856Z,-18269.13
2024-01-19T04:53:38.922Z,-18269.69
2024-01-19T04:56:43.398Z,-18270.91
2024-01-19T04:59:47.495Z,-18271.06
2024-01-19T05:02:50.746Z,-18272.03
2024-01-19T05:05:54.020Z,-18273.25
2024-01-19T05:08:57.354Z,-18271.19
2024-01-19T05:12:00.513Z,-18270.66
2024-01-19T05:15:03.544Z,-18270.91
2024-01-19T05:18:06.653Z,-18271.19
2024-01-19T05:21:09.523Z,-18269.97
2024-01-19T05:24:12.462Z,-18268.72
2024-01-19T05:27:15.191Z,-18269.69
2024-01-19T05:30:18.433Z,-18270.91
2024-01-19T05:33:21.236Z,-18272.56
2024-01-19T05:36:24.782Z,-18271.75
2024-01-19T05:39:27.421Z,-18273.69
2024-01-19T05:42:30.461Z,-18272.56
2024-01-19T05:45:33.019Z,-18270.38
2024-01-19T05:48:36.003Z,-18272.03
2024-01-19T05:51:38.752Z,-18270.66
2024-01-19T05:54:41.710Z,-18271.19
2024-01-19T05:57:44.411Z,-18270.38
2024-01-19T06:00:47.534Z,-18272.31
2024-01-19T06:03:50.736Z,-18270.50
2024-01-19T06:06:53.522Z,-18271.75
2024-01-19T06:09:56.459Z,-18273.25
2024-01-19T06:12:59.052Z,-18273.13
2024-01-19T06:16:02.317Z,-18273.69
2024-01-19T06:19:05.014Z,-18273.69
2024-01-19T06:22:08.073Z,-18272.16
2024-01-19T06:25:11.176Z,-18272.31
2024-01-19T06:28:14.189Z,-18272.56
2024-01-19T06:31:16.765Z,-18273.41
2024-01-19T06:34:19.964Z,-18273.13
2024-01-19T06:37:22.748Z,-18272.56
2024-01-19T06:40:25.739Z,-18274.91
2024-01-19T06:43:28.466Z,-18274.91
2024-01-19T06:46:31.437Z,-18274.50
2024-01-19T06:49:34.180Z,-18276.44
2024-01-19T06:52:37.112Z,-18277.13
2024-01-19T06:55:39.653Z,-18279.19
2024-01-19T06:58:43.794Z,-18278.91
2024-01-19T07:01:46.448Z,-18280.28
2024-01-19T07:04:50.893Z,-18281.94
2024-01-19T07:07:56.488Z,-18283.75
2024-01-19T07:11:00.135Z,-18282.22
2024-01-19T07:14:03.096Z,-18282.09
2024-01-19T07:17:06.118Z,-18282.50
2024-01-19T07:20:09.412Z,-18285.25
2024-01-19T07:23:12.624Z,-18283.31
2024-01-19T07:26:19.205Z,-18283.59
2024-01-19T07:29:22.133Z,-18283.47
2024-01-19T07:32:26.326Z,-18280.28
2024-01-19T07:35:29.528Z,-18283.06
2024-01-19T07:38:32.306Z,-18282.09
2024-01-19T07:41:35.325Z,-18280.44
2024-01-19T07:44:37.915Z,-18279.19
2024-01-19T07:47:40.899Z,-18280.56
2024-01-19T07:50:43.555Z,-18281.94
2024-01-19T07:53:46.696Z,-18277.41
2024-01-19T07:56:49.501Z,-18275.88
2024-01-19T07:59:52.585Z,-18272.31
2024-01-19T08:02:55.853Z,-18269.00
2024-01-19T08:05:59.264Z,-18269.53
2024-01-19T08:09:02.145Z,-18268.31
2024-01-19T08:12:07.326Z,-18269.41
2024-01-19T08:15:10.718Z,-18271.06
2024-01-19T08:18:14.040Z,-18271.63
2024-01-19T08:21:17.614Z,-18266.91
2024-01-19T08:24:20.785Z,-18268.03
2024-01-19T08:27:23.412Z,-18272.31
2024-01-19T08:30:26.338Z,-18273.94
2024-01-19T08:33:29.297Z,-18273.13
2024-01-19T08:36:32.733Z,-18271.75
2024-01-19T08:39:36.008Z,-18273.41
2024-01-19T08:42:39.530Z,-18276.56
2024-01-19T08:45:42.238Z,-18279.19
2024-01-19T08:48:47.061Z,-18284.56
2024-01-19T08:51:51.915Z,-18288.28
2024-01-19T08:54:54.911Z,-18289.53
2024-01-19T08:57:57.743Z,-18285.53
2024-01-19T09:01:03.107Z,-18284.44
2024-01-19T09:04:26.121Z,-18281.66
2024-01-19T09:07:29.326Z,-18277.69
2024-01-19T09:10:32.089Z,-18273.69
2024-01-19T09:13:35.025Z,-18268.72
2024-01-19T09:16:37.815Z,-18266.66
2024-01-19T09:19:40.851Z,-18265.13
2024-01-19T09:22:44.216Z,-18265.13
2024-01-19T09:25:47.119Z,-18262.09
2024-01-19T09:28:50.430Z,-18263.47
2024-01-19T09:31:53.271Z,-18265.13
2024-01-19T09:34:55.923Z,-18263.19
2024-01-19T09:37:58.961Z,-18263.19
2024-01-19T09:41:22.230Z,-18264.44
2024-01-19T09:44:35.010Z,-18262.38
2024-01-19T09:47:56.664Z,-18259.62
2024-01-19T09:51:05.753Z,-18257.97
2024-01-19T09:54:10.335Z,-18251.91
2024-01-19T09:57:13.319Z,-18251.34
2024-01-19T10:00:18.881Z,-18244.44
2024-01-19T10:03:23.793Z,-18238.09
2024-01-19T10:06:26.862Z,-18234.94
2024-01-19T10:09:30.510Z,-18234.66
2024-01-19T10:12:35.887Z,-18235.34
2024-01-19T10:15:39.161Z,-18236.72
2024-01-19T10:18:43.391Z,-18239.47
2024-01-19T10:21:46.620Z,-18240.19
2024-01-19T10:25:04.737Z,-18239.63
2024-01-19T10:28:07.861Z,-18242.78
2024-01-19T10:31:28.576Z,-18241.13
2024-01-19T10:34:31.585Z,-18241.56
2024-01-19T10:37:34.649Z,-18240.59
2024-01-19T10:40:37.964Z,-18242.53
2024-01-19T10:43:40.730Z,-18238.94
2024-01-19T10:46:44.510Z,-18240.72
2024-01-19T10:49:47.220Z,-18242.53
2024-01-19T10:52:54.640Z,-18240.03
2024-01-19T10:55:57.245Z,-18236.31
2024-01-19T10:59:14.761Z,-18234.38
2024-01-19T11:02:18.375Z,-18238.38
2024-01-19T11:05:21.653Z,-18238.53
2024-01-19T11:08:24.391Z,-18237.69
2024-01-19T11:11:35.160Z,-18240.03
2024-01-19T11:14:41.101Z,-18240.59
2024-01-19T11:17:44.348Z,-18240.44
2024-01-19T11:20:49.094Z,-18239.91
2024-01-19T11:23:53.602Z,-18240.44
2024-01-19T11:27:18.269Z,-18242.94
2024-01-19T11:30:33.323Z,-18243.91
2024-01-19T11:33:36.788Z,-18239.91
2024-01-19T11:36:49.501Z,-18241.00
2024-01-19T11:39:52.155Z,-18241.00
2024-01-19T11:42:55.792Z,-18240.03
2024-01-19T11:45:58.468Z,-18241.13
2024-01-19T11:49:03.718Z,-18241.00
2024-01-19T11:52:26.385Z,-18241.13
2024-01-19T11:55:29.373Z,-18241.69
2024-01-19T11:58:42.132Z,-18242.53
2024-01-19T12:01:45.121Z,-18241.41
2024-01-19T12:04:53.422Z,-18243.34
2024-01-19T12:08:02.637Z,-18241.41
2024-01-19T12:11:07.930Z,-18245.97
2024-01-19T12:14:14.222Z,-18246.66
2024-01-19T12:17:17.239Z,-18248.31
2024-01-19T12:20:20.605Z,-18247.22
2024-01-19T12:23:25.372Z,-18245.00
2024-01-19T12:26:28.451Z,-18244.16
2024-01-19T12:29:37.476Z,-18244.59
2024-01-19T12:32:40.918Z,-18243.22
2024-01-19T12:35:44.269Z,-18242.38
2024-01-19T12:38:47.144Z,-18242.25
2024-01-19T12:42:08.005Z,-18243.22
2024-01-19T12:45:14.635Z,-18243.34
2024-01-19T12:48:25.653Z,-18248.87
2024-01-19T12:51:32.355Z,-18249.13
2024-01-19T12:54:45.401Z,-18250.78
2024-01-19T12:57:51.137Z,-18256.16
2024-01-19T13:00:54.360Z,-18254.94
2024-01-19T13:03:58.038Z,-18253.28
2024-01-19T13:07:01.128Z,-18251.91
2024-01-19T13:10:04.715Z,-18255.22
2024-01-19T13:13:19.972Z,-18255.91
2024-01-19T13:16:22.533Z,-18255.47
2024-01-19T13:19:25.551Z,-18253.00
2024-01-19T13:22:28.471Z,-18251.34
2024-01-19T13:25:31.511Z,-18252.44
2024-01-19T13:28:34.320Z,-18249.00
2024-01-19T13:31:37.495Z,-18249.41
2024-01-19T13:34:40.246Z,-18251.06
2024-01-19T13:37:45.062Z,-18253.69
2024-01-19T13:40:47.765Z,-18253.69
2024-01-19T13:43:50.679Z,-18255.34
2024-01-19T13:46:53.408Z,-18254.38
2024-01-19T13:50:02.253Z,-18256.03
2024-01-19T13:53:05.790Z,-18257.97
2024-01-19T13:56:09.896Z,-18260.16
2024-01-19T13:59:12.617Z,-18262.22
2024-01-19T14:02:18.941Z,-18265.53
2024-01-19T14:05:21.990Z,-18266.78
2024-01-19T14:08:25.570Z,-18266.50
2024-01-19T14:11:28.761Z,-18263.19
2024-01-19T14:14:32.943Z,-18259.06
2024-01-19T14:17:35.950Z,-18259.91
2024-01-19T14:20:38.615Z,-18260.72
2024-01-19T14:23:41.562Z,-18261.97
2024-01-19T14:26:44.557Z,-18265.81
2024-01-19T14:29:49.218Z,-18267.34
2024-01-19T14:32:54.770Z,-18267.88
2024-01-19T14:35:57.861Z,-18267.88
2024-01-19T14:39:00.508Z,-18265.69
2024-01-19T14:42:03.731Z,-18265.69
2024-01-19T14:45:08.427Z,-18264.84
2024-01-19T14:48:13.130Z,-18264.72
2024-01-19T14:51:16.611Z,-18262.94
2024-01-19T14:54:20.095Z,-18261.56
2024-01-19T14:57:23.427Z,-18260.84
2024-01-19T15:00:26.317Z,-18260.16
2024-01-19T15:03:28.958Z,-18259.91
2024-01-19T15:06:32.018Z,-18258.09
2024-01-19T15:09:34.730Z,-18257.69
2024-01-19T15:12:37.902Z,-18256.72
2024-01-19T15:15:40.437Z,-18253.00
2024-01-19T15:18:43.656Z,-18253.13
2024-01-19T15:21:47.809Z,-18251.34
2024-01-19T15:24:51.826Z,-18252.19
2024-01-19T15:27:55.472Z,-18252.19
2024-01-19T15:30:59.417Z,-18251.91
2024-01-19T15:34:02.929Z,-18252.44
2024-01-19T15:37:08.672Z,-18250.53
2024-01-19T15:40:16.814Z,-18252.59
2024-01-19T15:43:20.657Z,-18251.63
2024-01-19T15:46:25.780Z,-18250.78
2024-01-19T15:49:29.910Z,-18250.25
2024-01-19T15:52:33.547Z,-18250.66
2024-01-19T15:55:37.541Z,-18251.06
2024-01-19T15:58:40.509Z,-18249.41
2024-01-19T16:01:44.393Z,-18250.25
2024-01-19T16:04:47.633Z,-18250.94
2024-01-19T16:07:50.373Z,-18251.06
2024-01-19T16:10:53.607Z,-18252.44
2024-01-19T16:13:56.246Z,-18254.25
2024-01-19T16:17:01.073Z,-18253.13
2024-01-19T16:20:04.589Z,-18253.00
2024-01-19T16:23:07.782Z,-18253.69
2024-01-19T16:26:10.630Z,-18252.84
2024-01-19T16:29:13.539Z,-18252.59
2024-01-19T16:32:16.310Z,-18252.44
2024-01-19T16:35:27.459Z,-18249.97
2024-01-19T16:38:34.932Z,-18252.44
2024-01-19T16:41:42.822Z,-18251.34
2024-01-19T16:44:46.250Z,-18251.63
2024-01-19T16:47:49.958Z,-18250.66
2024-01-19T16:50:53.965Z,-18248.59
2024-01-19T16:53:57.670Z,-18248.87
2024-01-19T16:57:03.561Z,-18249.13
2024-01-19T17:00:07.924Z,-18248.87
2024-01-19T17:03:13.628Z,-18246.94
2024-01-19T17:06:17.552Z,-18248.87
2024-01-19T17:09:24.448Z,-18247.91
2024-01-19T17:12:27.952Z,-18245.81
2024-01-19T17:15:31.191Z,-18245.28
2024-01-19T17:18:34.362Z,-18243.91
2024-01-19T17:21:40.851Z,-18243.47
2024-01-19T17:24:44.121Z,-18243.06
2024-01-19T17:27:46.819Z,-18242.25
2024-01-19T17:30:50.101Z,-18242.66
2024-01-19T17:34:05.264Z,-18241.97
2024-01-19T17:37:12.449Z,-18241.00
2024-01-19T17:40:15.206Z,-18245.00
2024-01-19T17:43:19.088Z,-18244.72
2024-01-19T17:46:22.292Z,-18246.25
2024-01-19T17:49:25.406Z,-18249.13
2024-01-19T17:52:40.647Z,-18249.13
2024-01-19T17:55:43.841Z,-18248.03
2024-01-19T17:58:46.559Z,-18247.91
2024-01-19T18:01:49.537Z,-18247.75
2024-01-19T18:04:52.928Z,-18249.69
2024-01-19T18:07:55.826Z,-18249.13
2024-01-19T18:10:58.958Z,-18249.81
2024-01-19T18:14:02.664Z,-18250.53
2024-01-19T18:17:05.862Z,-18250.38
2024-01-19T18:20:09.869Z,-18249.69
2024-01-19T18:23:13.034Z,-18248.72
2024-01-19T18:26:16.082Z,-18248.72
2024-01-19T18:29:20.966Z,-18246.94
2024-01-19T18:32:23.876Z,-18246.38
2024-01-19T18:35:27.013Z,-18244.16
2024-01-19T18:38:29.665Z,-18240.31
2024-01-19T18:41:32.598Z,-18237.97
2024-01-19T18:44:35.884Z,-18235.34
2024-01-19T18:47:41.505Z,-18234.50
2024-01-19T18:50:44.256Z,-18232.44
2024-01-19T18:53:47.780Z,-18229.00
2024-01-19T18:56:50.788Z,-18228.72
2024-01-19T18:59:54.793Z,-18225.69
2024-01-19T19:02:58.201Z,-18223.63
2024-01-19T19:06:01.449Z,-18222.38
2024-01-19T19:09:04.764Z,-18222.09
2024-01-19T19:12:08.072Z,-18222.09
2024-01-19T19:15:10.808Z,-18222.78
2024-01-19T19:18:13.984Z,-18222.38
2024-01-19T19:21:21.351Z,-18219.34
2024-01-19T19:24:25.804Z,-18219.19
2024-01-19T19:27:28.500Z,-18216.44
2024-01-19T19:30:33.247Z,-18215.75
2024-01-19T19:33:37.470Z,-18213.28
2024-01-19T19:36:40.576Z,-18209.69
2024-01-19T19:39:43.331Z,-18208.16
2024-01-19T19:42:46.523Z,-18206.22
2024-01-19T19:45:51.870Z,-18206.78
2024-01-19T19:48:58.120Z,-18209.13
2024-01-19T19:52:01.646Z,-18207.59
2024-01-19T19:55:05.125Z,-18205.00
2024-01-19T19:58:07.792Z,-18204.72
2024-01-19T20:01:14.000Z,-18205.81
2024-01-19T20:04:17.060Z,-18205.25
2024-01-19T20:07:19.682Z,-18202.37
2024-01-19T20:10:22.876Z,-18203.75
2024-01-19T20:13:25.622Z,-18204.72
2024-01-19T20:16:28.627Z,-18205.25
2024-01-19T20:19:31.392Z,-18206.66
2024-01-19T20:22:42.549Z,-18205.94
2024-01-19T20:25:45.370Z,-18203.75
2024-01-19T20:28:48.592Z,-18205.53
2024-01-19T20:31:51.776Z,-18205.53
2024-01-19T20:34:54.947Z,-18205.00
2024-01-19T20:37:58.045Z,-18204.28
2024-01-19T20:41:01.281Z,-18201.81
2024-01-19T20:44:04.414Z,-18200.56
2024-01-19T20:47:07.436Z,-18199.59
2024-01-19T20:50:10.435Z,-18196.69
2024-01-19T20:53:13.583Z,-18195.31
2024-01-19T20:56:16.742Z,-18193.66
2024-01-19T20:59:20.239Z,-18191.72
2024-01-19T21:02:23.078Z,-18189.38
2024-01-19T21:05:26.519Z,-18190.06
2024-01-19T21:08:30.029Z,-18192.00
2024-01-19T21:11:33.196Z,-18192.00
2024-01-19T21:14:37.149Z,-18195.03
2024-01-19T21:17:41.162Z,-18197.13
2024-01-19T21:20:44.079Z,-18199.47
2024-01-19T21:23:48.388Z,-18200.03
2024-01-19T21:26:51.031Z,-18204.72
2024-01-19T21:29:55.019Z,-18204.16
2024-01-19T21:32:57.959Z,-18205.00
2024-01-19T21:36:00.888Z,-18206.09
2024-01-19T21:39:03.787Z,-18204.72
2024-01-19T21:42:07.175Z,-18205.25
2024-01-19T21:45:09.935Z,-18204.56
2024-01-19T21:48:13.555Z,-18206.38
2024-01-19T21:51:17.373Z,-18206.38
2024-01-19T21:54:20.434Z,-18207.06
2024-01-19T21:57:27.462Z,-18208.84
2024-01-19T22:00:30.472Z,-18207.75
2024-01-19T22:03:34.586Z,-18210.09
2024-01-19T22:06:37.444Z,-18212.03
2024-01-19T22:09:43.014Z,-18212.72
2024-01-19T22:12:47.030Z,-18212.16
2024-01-19T22:15:50.012Z,-18210.38
2024-01-19T22:18:52.821Z,-18209.53
2024-01-19T22:21:55.754Z,-18206.09
2024-01-19T22:24:58.472Z,-18203.59
2024-01-19T22:28:01.360Z,-18203.59
2024-01-19T22:31:05.059Z,-18203.19
2024-01-19T22:34:12.121Z,-18204.03
2024-01-19T22:37:16.613Z,-18205.25
2024-01-19T22:40:19.966Z,-18203.59
2024-01-19T22:43:22.780Z,-18203.06
2024-01-19T22:46:26.642Z,-18201.25
2024-01-19T22:49:30.195Z,-18199.75
2024-01-19T22:52:33.294Z,-18195.88
2024-01-19T22:55:36.444Z,-18193.66
2024-01-19T22:58:39.535Z,-18193.13
2024-01-19T23:01:45.058Z,-18194.22
2024-01-19T23:04:48.204Z,-18196.00
2024-01-19T23:07:51.901Z,-18195.31
2024-01-19T23:10:54.903Z,-18196.28
2024-01-19T23:13:57.594Z,-18195.31
2024-01-19T23:17:00.678Z,-18192.84
2024-01-19T23:20:04.962Z,-18192.41
2024-01-19T23:23:08.103Z,-18193.13
2024-01-19T23:26:11.153Z,-18194.91
2024-01-19T23:29:14.285Z,-18195.03
2024-01-19T23:32:17.582Z,-18193.53
2024-01-19T23:35:20.936Z,-18193.13
2024-01-19T23:38:23.734Z,-18191.47
2024-01-19T23:41:26.935Z,-18190.50
2024-01-19T23:44:29.644Z,-18189.25
2024-01-19T23:47:32.562Z,-18190.63
2024-01-19T23:50:38.270Z,-18189.94
2024-01-19T23:53:41.075Z,-18186.47
2024-01-19T23:56:44.047Z,-18185.09
2024-01-19T23:59:47.229Z,-18183.88
